Time;durP1;ratioP1;P1;durP2;ratioP2;P2;SDS_P1;SDS_P2;PMS_P1;PMS_P2;Temp;Humidity;BMP_temperature;BMP_pressure;BME280_temperature;BME280_humidity;BME280_pressure;Samples;Min_cycle;Max_cycle;Signal;HPM_P1;HPM_P2
2023/03/01 00:01:27;;;;;;;91.07;43.03;;;-0.80;59.50;;;;;;4969049;28;114861;-78
2023/03/01 00:03:55;;;;;;;82.38;41.65;;;-0.90;59.60;;;;;;5003920;28;114553;-78
2023/03/01 00:06:23;;;;;;;82.82;42.78;;;-0.90;59.60;;;;;;4987036;28;114357;-78
2023/03/01 00:08:50;;;;;;;92.00;43.92;;;-0.90;59.80;;;;;;4985384;28;115687;-78
2023/03/01 00:11:25;;;;;;;91.93;44.47;;;-0.90;59.90;;;;;;4969864;28;114720;-78
2023/03/01 00:13:55;;;;;;;98.65;47.25;;;-0.90;60.10;;;;;;4969930;28;117676;-78
2023/03/01 00:16:26;;;;;;;98.93;46.85;;;-0.90;60.00;;;;;;4969858;28;114726;-78
2023/03/01 00:18:57;;;;;;;101.68;47.38;;;-0.90;60.20;;;;;;4969026;28;116362;-78
2023/03/01 00:21:24;;;;;;;105.38;49.05;;;-0.90;60.30;;;;;;4968002;28;116847;-78
2023/03/01 00:23:51;;;;;;;110.45;50.33;;;-0.90;60.30;;;;;;4966166;28;114496;-79
2023/03/01 00:26:20;;;;;;;97.60;49.45;;;-0.90;60.30;;;;;;4986319;28;114769;-78
2023/03/01 00:28:47;;;;;;;106.10;47.92;;;-0.90;60.20;;;;;;4985675;28;115142;-79
2023/03/01 00:31:18;;;;;;;106.28;48.78;;;-0.90;60.20;;;;;;4985527;28;114935;-78
2023/03/01 00:33:46;;;;;;;101.80;49.33;;;-1.00;60.20;;;;;;5003320;28;114493;-78
2023/03/01 00:36:14;;;;;;;104.47;49.55;;;-1.00;60.20;;;;;;4950706;28;114445;-77
2023/03/01 00:38:44;;;;;;;105.40;50.08;;;-1.00;60.30;;;;;;4923447;28;115102;-77
2023/03/01 00:41:14;;;;;;;102.05;47.42;;;-1.00;60.40;;;;;;4948856;28;115025;-77
2023/03/01 00:43:42;;;;;;;89.20;44.90;;;-1.00;60.40;;;;;;4933398;28;114688;-78
2023/03/01 00:46:15;;;;;;;86.60;43.70;;;-1.00;60.30;;;;;;4948278;28;114413;-78
2023/03/01 00:48:42;;;;;;;100.60;50.20;;;-1.00;60.40;;;;;;4951839;28;116229;-78
2023/03/01 00:51:16;;;;;;;111.30;52.25;;;-1.00;60.40;;;;;;4957799;28;116120;-78
2023/03/01 00:53:43;;;;;;;116.07;56.20;;;-1.10;60.40;;;;;;4969466;28;114560;-77
2023/03/01 00:56:12;;;;;;;108.22;53.72;;;-1.10;60.30;;;;;;4969187;28;114927;-78
2023/03/01 00:58:39;;;;;;;115.43;53.42;;;-1.10;60.40;;;;;;5001773;28;115312;-78
2023/03/01 01:01:24;;;;;;;115.97;54.83;;;-1.20;60.60;;;;;;5002094;28;115730;-78
2023/03/01 01:03:57;;;;;;;113.25;54.58;;;-1.10;60.80;;;;;;4985676;28;114399;-78
2023/03/01 01:06:30;;;;;;;115.55;53.92;;;-1.20;60.70;;;;;;4969719;28;114570;-78
2023/03/01 01:08:58;;;;;;;116.13;55.72;;;-1.20;60.70;;;;;;4968569;28;115140;-78
2023/03/01 01:11:27;;;;;;;112.72;52.55;;;-1.20;60.50;;;;;;4929092;28;115054;-78
2023/03/01 01:13:54;;;;;;;103.05;51.35;;;-1.20;60.50;;;;;;4968379;28;114517;-77
2023/03/01 01:16:23;;;;;;;119.43;56.20;;;-1.30;60.60;;;;;;5002895;28;114378;-78
2023/03/01 01:18:50;;;;;;;114.47;53.28;;;-1.30;60.70;;;;;;4984302;28;115258;-78
2023/03/01 01:21:20;;;;;;;122.35;57.35;;;-1.30;60.70;;;;;;4939635;28;114751;-78
2023/03/01 01:23:47;;;;;;;122.20;55.75;;;-1.30;60.60;;;;;;4983266;28;114344;-78
2023/03/01 01:26:23;;;;;;;111.05;55.78;;;-1.30;60.60;;;;;;4965340;28;114817;-78
2023/03/01 01:28:51;;;;;;;115.13;54.85;;;-1.30;60.70;;;;;;4981807;28;115305;-78
2023/03/01 01:31:18;;;;;;;113.32;52.08;;;-1.40;60.70;;;;;;4944317;28;116479;-78
2023/03/01 01:33:46;;;;;;;121.43;55.67;;;-1.40;60.80;;;;;;5003051;28;114378;-78
2023/03/01 01:36:13;;;;;;;113.03;53.75;;;-1.40;60.90;;;;;;4968784;28;114650;-78
2023/03/01 01:38:42;;;;;;;112.50;54.78;;;-1.30;60.90;;;;;;4983893;28;115105;-78
2023/03/01 01:41:11;;;;;;;121.07;55.88;;;-1.30;60.90;;;;;;4967519;28;115760;-78
2023/03/01 01:43:48;;;;;;;117.30;55.45;;;-1.40;61.00;;;;;;4952538;28;114829;-78
2023/03/01 01:46:31;;;;;;;105.13;49.42;;;-1.40;61.00;;;;;;4968261;28;114710;-77
2023/03/01 01:49:13;;;;;;;105.77;51.93;;;-1.50;61.20;;;;;;4966888;28;115690;-78
2023/03/01 01:51:42;;;;;;;101.38;50.28;;;-1.60;61.40;;;;;;4956875;28;114680;-78
2023/03/01 01:54:38;;;;;;;97.97;47.40;;;-1.70;61.60;;;;;;4917066;28;114403;-78
2023/03/01 01:57:12;;;;;;;90.07;44.13;;;-1.50;61.70;;;;;;4941610;28;114637;-78
2023/03/01 01:59:39;;;;;;;98.93;47.80;;;-1.60;61.80;;;;;;4948515;28;117226;-78
2023/03/01 02:02:07;;;;;;;105.30;50.45;;;-1.50;61.80;;;;;;4948320;28;115138;-78
2023/03/01 02:04:34;;;;;;;100.40;50.00;;;-1.50;61.90;;;;;;4948421;28;114311;-78
2023/03/01 02:07:22;;;;;;;100.47;49.13;;;-1.50;61.90;;;;;;4964081;28;114678;-77
2023/03/01 02:09:52;;;;;;;102.35;50.10;;;-1.40;62.10;;;;;;4927013;28;115025;-78
2023/03/01 02:12:23;;;;;;;109.43;48.75;;;-1.40;62.00;;;;;;4929119;28;115933;-78
2023/03/01 02:14:50;;;;;;;109.32;51.50;;;-1.40;61.90;;;;;;4926970;28;117170;-78
2023/03/01 02:17:17;;;;;;;108.28;50.70;;;-1.40;61.70;;;;;;4981883;28;114492;-79
2023/03/01 02:20:45;;;;;;;101.05;45.22;;;-1.40;61.60;;;;;;4963291;28;115131;-78
2023/03/01 02:23:13;;;;;;;91.50;43.33;;;-1.40;61.60;;;;;;4907780;28;114691;-78
2023/03/01 02:26:01;;;;;;;96.07;44.67;;;-1.40;61.50;;;;;;4929137;28;114687;-77
2023/03/01 02:28:33;;;;;;;96.97;44.60;;;-1.50;61.80;;;;;;4929204;28;114720;-78
2023/03/01 02:33:48;;;;;;;96.93;46.08;;;-1.60;61.60;;;;;;4966608;28;115075;-78
2023/03/01 02:36:21;;;;;;;94.50;45.53;;;-1.60;61.80;;;;;;4980134;28;114598;-78
2023/03/01 02:38:49;;;;;;;93.37;43.70;;;-1.70;61.90;;;;;;4949184;28;114668;-77
2023/03/01 02:41:17;;;;;;;89.20;43.17;;;-1.80;61.70;;;;;;4914929;28;115265;-78
2023/03/01 02:43:44;;;;;;;93.88;45.30;;;-1.80;61.90;;;;;;4947311;28;114601;-77
2023/03/01 02:46:23;;;;;;;99.72;46.20;;;-1.80;62.10;;;;;;4927948;28;114876;-77
2023/03/01 02:48:53;;;;;;;97.55;46.65;;;-1.80;62.30;;;;;;4943863;28;114429;-77
2023/03/01 02:51:41;;;;;;;87.03;42.80;;;-1.80;62.10;;;;;;4961125;28;115512;-77
2023/03/01 02:54:14;;;;;;;92.43;43.30;;;-1.80;62.10;;;;;;4938497;28;114722;-78
2023/03/01 02:56:42;;;;;;;87.57;43.53;;;-1.80;62.00;;;;;;4924978;28;114542;-77
2023/03/01 02:59:09;;;;;;;83.93;42.42;;;-1.80;62.00;;;;;;4930384;28;114583;-77
2023/03/01 03:01:36;;;;;;;84.07;41.28;;;-1.90;62.00;;;;;;4966451;28;115284;-77
2023/03/01 03:04:07;;;;;;;85.35;41.13;;;-1.90;62.20;;;;;;4983366;28;114669;-78
2023/03/01 03:06:35;;;;;;;86.75;42.95;;;-1.90;62.30;;;;;;4984219;28;114536;-77
2023/03/01 03:09:03;;;;;;;94.88;44.90;;;-1.90;62.20;;;;;;4955207;28;114609;-78
2023/03/01 03:11:32;;;;;;;91.50;44.63;;;-1.90;62.00;;;;;;4982485;28;115098;-78
2023/03/01 03:13:59;;;;;;;89.03;43.17;;;-1.90;62.10;;;;;;4983401;28;115071;-77
2023/03/01 03:16:26;;;;;;;87.95;42.80;;;-1.90;62.20;;;;;;4950993;28;114623;-77
2023/03/01 03:18:53;;;;;;;89.55;42.22;;;-1.90;62.20;;;;;;4969635;28;114512;-77
2023/03/01 03:21:20;;;;;;;84.90;41.67;;;-2.00;62.20;;;;;;5003455;28;115215;-78
2023/03/01 03:23:48;;;;;;;83.75;39.90;;;-2.00;62.30;;;;;;5003857;28;114690;-77
2023/03/01 03:26:15;;;;;;;92.82;44.35;;;-2.00;62.40;;;;;;4986922;28;114237;-77
2023/03/01 03:28:42;;;;;;;85.63;41.20;;;-2.00;62.40;;;;;;4987306;28;114552;-77
2023/03/01 03:31:09;;;;;;;93.72;45.22;;;-2.00;62.40;;;;;;5003596;28;115283;-77
2023/03/01 03:33:36;;;;;;;108.90;49.10;;;-2.00;62.40;;;;;;4970162;28;114717;-77
2023/03/01 03:36:04;;;;;;;101.07;49.55;;;-1.90;62.50;;;;;;4954414;28;114337;-77
2023/03/01 03:38:31;;;;;;;106.25;51.33;;;-2.00;62.60;;;;;;5005154;28;114361;-77
2023/03/01 03:41:07;;;;;;;106.90;51.15;;;-1.90;62.70;;;;;;4986127;28;116477;-77
2023/03/01 03:43:36;;;;;;;102.13;46.75;;;-1.90;62.80;;;;;;4982503;28;115181;-77
2023/03/01 03:46:05;;;;;;;89.18;43.95;;;-1.90;62.50;;;;;;4951001;28;114413;-77
2023/03/01 03:48:43;;;;;;;85.07;41.40;;;-1.90;62.50;;;;;;4966473;28;114553;-78
2023/03/01 03:51:15;;;;;;;79.25;40.42;;;-1.90;62.60;;;;;;4966676;28;115359;-78
2023/03/01 03:53:42;;;;;;;85.13;38.78;;;-1.90;62.50;;;;;;4950033;28;114727;-78
2023/03/01 03:56:09;;;;;;;77.93;37.75;;;-1.90;62.50;;;;;;4966918;28;114575;-78
2023/03/01 03:58:37;;;;;;;85.20;39.90;;;-2.00;62.30;;;;;;4966484;28;115059;-78
2023/03/01 04:01:04;;;;;;;89.13;41.20;;;-1.90;62.30;;;;;;4970667;28;116654;-78
2023/03/01 04:03:31;;;;;;;89.05;42.50;;;-2.00;62.40;;;;;;4969174;28;114539;-78
2023/03/01 04:05:59;;;;;;;80.53;39.75;;;-2.00;62.50;;;;;;4970400;28;114687;-78
2023/03/01 04:08:27;;;;;;;89.82;41.13;;;-2.00;62.60;;;;;;5004009;28;116113;-78
2023/03/01 04:11:00;;;;;;;84.97;40.47;;;-2.10;62.60;;;;;;4953059;28;115043;-78
2023/03/01 04:13:27;;;;;;;67.13;32.45;;;-2.00;62.70;;;;;;4985578;28;114724;-78
2023/03/01 04:15:54;;;;;;;88.70;41.42;;;-2.10;62.50;;;;;;5002008;28;118162;-78
2023/03/01 04:18:23;;;;;;;94.47;47.47;;;-2.10;62.70;;;;;;5004064;28;114897;-78
2023/03/01 04:20:52;;;;;;;94.30;44.42;;;-2.00;62.70;;;;;;4954578;28;116264;-78
2023/03/01 04:23:20;;;;;;;100.25;45.63;;;-2.00;62.80;;;;;;4949501;28;116910;-78
2023/03/01 04:25:58;;;;;;;92.25;44.78;;;-2.00;62.80;;;;;;4982764;28;114385;-78
2023/03/01 04:28:27;;;;;;;100.60;45.35;;;-2.00;62.90;;;;;;4985892;28;114388;-78
2023/03/01 04:30:56;;;;;;;105.13;52.80;;;-2.10;62.70;;;;;;4952035;28;115708;-78
2023/03/01 04:33:24;;;;;;;99.72;48.15;;;-2.10;62.60;;;;;;4968352;28;114964;-78
2023/03/01 04:35:52;;;;;;;103.65;50.33;;;-2.10;62.60;;;;;;4969369;28;114794;-78
2023/03/01 04:38:19;;;;;;;93.03;47.10;;;-2.20;62.70;;;;;;4985705;28;114210;-80
2023/03/01 04:40:46;;;;;;;102.30;46.40;;;-2.10;62.90;;;;;;5002608;28;115081;-78
2023/03/01 04:43:17;;;;;;;92.53;43.60;;;-2.10;62.80;;;;;;5002817;28;114784;-78
2023/03/01 04:45:44;;;;;;;96.65;46.25;;;-2.20;62.70;;;;;;4986306;28;114495;-78
2023/03/01 04:48:12;;;;;;;98.03;46.20;;;-2.20;62.70;;;;;;4999934;28;114411;-78
2023/03/01 04:50:39;;;;;;;109.97;51.70;;;-2.30;62.90;;;;;;5001943;28;115393;-78
2023/03/01 04:53:06;;;;;;;102.15;47.85;;;-2.30;63.00;;;;;;4984710;28;114802;-78
2023/03/01 04:55:33;;;;;;;105.95;49.40;;;-2.40;63.00;;;;;;4968584;28;114386;-78
2023/03/01 04:58:00;;;;;;;105.07;47.63;;;-2.40;63.00;;;;;;4995959;28;114552;-77
2023/03/01 05:00:28;;;;;;;101.95;47.38;;;-2.40;63.10;;;;;;4984589;28;115076;-78
2023/03/01 05:02:57;;;;;;;108.32;50.60;;;-2.40;63.20;;;;;;5002159;28;114876;-78
2023/03/01 05:05:35;;;;;;;92.50;45.88;;;-2.40;63.30;;;;;;4968890;28;114750;-78
2023/03/01 05:08:06;;;;;;;98.68;46.13;;;-2.40;63.40;;;;;;4985695;28;114469;-77
2023/03/01 05:10:35;;;;;;;96.07;47.63;;;-2.50;63.40;;;;;;4938473;28;115122;-77
2023/03/01 05:13:02;;;;;;;107.28;51.30;;;-2.50;63.40;;;;;;4968223;28;115072;-78
2023/03/01 05:15:30;;;;;;;118.90;54.05;;;-2.60;63.50;;;;;;4984442;28;114470;-77
2023/03/01 05:17:59;;;;;;;108.13;50.80;;;-2.70;63.70;;;;;;4958826;28;114747;-79
2023/03/01 05:20:29;;;;;;;115.07;53.17;;;-2.70;63.90;;;;;;4948552;28;115086;-78
2023/03/01 05:22:59;;;;;;;104.00;50.38;;;-2.70;63.90;;;;;;4932733;28;115113;-77
2023/03/01 05:25:27;;;;;;;102.82;55.53;;;-2.60;64.00;;;;;;4964907;28;114424;-78
2023/03/01 05:27:54;;;;;;;115.85;54.22;;;-2.50;64.00;;;;;;4917118;28;114353;-77
2023/03/01 05:30:21;;;;;;;111.45;54.33;;;-2.40;64.00;;;;;;4964200;28;115696;-78
2023/03/01 05:32:55;;;;;;;113.93;55.10;;;-2.40;63.90;;;;;;4948455;28;115133;-78
2023/03/01 05:35:23;;;;;;;112.18;54.53;;;-2.30;63.70;;;;;;4982766;28;114722;-78
2023/03/01 05:37:50;;;;;;;119.45;54.70;;;-2.30;63.60;;;;;;4964908;28;114245;-78
2023/03/01 05:40:24;;;;;;;113.47;51.03;;;-2.30;63.60;;;;;;4947424;28;115668;-79
2023/03/01 05:42:56;;;;;;;102.53;51.55;;;-2.30;63.60;;;;;;4947276;28;115499;-78
2023/03/01 05:45:24;;;;;;;105.10;49.47;;;-2.20;63.40;;;;;;4966197;28;114599;-78
2023/03/01 05:47:52;;;;;;;112.85;53.90;;;-2.30;63.40;;;;;;5001110;28;114454;-79
2023/03/01 05:50:28;;;;;;;106.35;56.15;;;-2.30;63.40;;;;;;4972212;28;115484;-79
2023/03/01 05:53:01;;;;;;;103.55;50.85;;;-2.30;63.40;;;;;;4917239;28;117444;-78
2023/03/01 05:55:29;;;;;;;118.25;56.38;;;-2.20;63.40;;;;;;4984014;28;114658;-78
2023/03/01 05:57:59;;;;;;;116.75;54.10;;;-2.30;63.40;;;;;;4981141;28;114559;-77
2023/03/01 06:00:27;;;;;;;110.97;52.42;;;-2.20;63.50;;;;;;4964765;28;115206;-77
2023/03/01 06:02:57;;;;;;;109.20;50.72;;;-2.20;63.50;;;;;;4931758;28;114815;-79
2023/03/01 06:05:24;;;;;;;104.43;50.70;;;-2.10;63.60;;;;;;4993379;28;114709;-78
2023/03/01 06:07:52;;;;;;;106.20;50.90;;;-2.00;63.50;;;;;;4953063;28;114689;-78
2023/03/01 06:10:21;;;;;;;104.28;50.65;;;-1.90;63.40;;;;;;4947608;28;115348;-78
2023/03/01 06:12:49;;;;;;;96.88;48.50;;;-1.80;63.30;;;;;;4962528;28;114791;-78
2023/03/01 06:15:16;;;;;;;95.90;49.92;;;-1.70;63.10;;;;;;4979333;28;117667;-78
2023/03/01 06:17:45;;;;;;;99.18;49.28;;;-1.60;63.00;;;;;;4947740;28;114621;-78
2023/03/01 06:20:20;;;;;;;91.88;47.15;;;-1.50;62.90;;;;;;4983322;28;115226;-77
2023/03/01 06:22:49;;;;;;;94.55;48.13;;;-1.40;62.90;;;;;;5001071;28;115550;-78
2023/03/01 06:25:19;;;;;;;97.63;49.83;;;-1.30;62.60;;;;;;4973297;28;114605;-77
2023/03/01 06:27:46;;;;;;;96.10;47.25;;;-1.20;62.50;;;;;;4964049;28;114495;-79
2023/03/01 06:30:15;;;;;;;99.47;48.60;;;-1.10;62.30;;;;;;4946742;28;115433;-80
2023/03/01 06:32:43;;;;;;;99.72;50.25;;;-0.90;62.20;;;;;;4929577;28;116649;-77
2023/03/01 06:35:18;;;;;;;98.88;47.90;;;-0.90;62.00;;;;;;4947664;28;114572;-78
2023/03/01 06:37:47;;;;;;;101.47;51.05;;;-0.80;62.00;;;;;;4981576;28;114433;-78
2023/03/01 06:40:15;;;;;;;97.75;48.05;;;-0.70;61.80;;;;;;4963469;28;115665;-78
2023/03/01 06:42:48;;;;;;;98.57;50.03;;;-0.50;61.70;;;;;;4966239;28;115214;-78
2023/03/01 06:45:19;;;;;;;106.50;51.78;;;-0.50;61.50;;;;;;4924928;28;114422;-78
2023/03/01 06:47:46;;;;;;;97.07;49.50;;;-0.40;61.50;;;;;;4984523;28;114674;-78
2023/03/01 06:50:17;;;;;;;98.90;49.58;;;-0.30;61.30;;;;;;4981538;28;115742;-78
2023/03/01 06:52:44;;;;;;;97.97;48.90;;;-0.20;61.10;;;;;;4984133;28;114642;-78
2023/03/01 06:55:12;;;;;;;86.47;45.55;;;-0.10;60.90;;;;;;5003547;28;114415;-78
2023/03/01 06:57:42;;;;;;;93.20;45.95;;;0.10;60.80;;;;;;4987230;28;114793;-78
2023/03/01 07:00:10;;;;;;;85.93;44.78;;;0.20;60.50;;;;;;5004657;28;115171;-77
2023/03/01 07:02:37;;;;;;;74.97;40.17;;;0.30;60.50;;;;;;4986858;28;115331;-78
2023/03/01 07:05:05;;;;;;;74.30;39.97;;;0.50;60.30;;;;;;4972743;28;114457;-79
2023/03/01 07:07:32;;;;;;;68.43;36.65;;;0.60;60.00;;;;;;4996144;28;114602;-78
2023/03/01 07:10:00;;;;;;;69.70;36.03;;;0.60;59.70;;;;;;4970205;28;115194;-79
2023/03/01 07:12:27;;;;;;;75.00;39.67;;;0.70;59.60;;;;;;4987191;28;114839;-77
2023/03/01 07:14:57;;;;;;;68.32;37.92;;;0.80;59.50;;;;;;5004762;28;114250;-78
2023/03/01 07:17:25;;;;;;;74.10;37.83;;;0.90;59.20;;;;;;4987299;28;115512;-78
2023/03/01 07:19:52;;;;;;;77.65;41.50;;;1.00;59.20;;;;;;4987052;28;115117;-78
2023/03/01 07:22:19;;;;;;;76.65;40.30;;;1.10;59.00;;;;;;4966093;28;114693;-78
2023/03/01 07:24:46;;;;;;;74.45;39.75;;;1.20;58.80;;;;;;4984587;28;115599;-79
2023/03/01 07:27:17;;;;;;;70.28;39.92;;;1.40;58.70;;;;;;4967179;28;115608;-78
2023/03/01 07:29:44;;;;;;;90.22;44.53;;;1.50;58.60;;;;;;4984462;28;115505;-78
2023/03/01 07:32:11;;;;;;;80.72;44.10;;;1.60;58.20;;;;;;4982852;28;115466;-78
2023/03/01 07:34:40;;;;;;;78.82;41.65;;;1.70;58.00;;;;;;4959443;28;114575;-78
2023/03/01 07:37:08;;;;;;;75.82;42.78;;;1.70;57.90;;;;;;4985243;28;114430;-78
2023/03/01 07:39:35;;;;;;;82.35;45.00;;;1.80;57.70;;;;;;4965925;28;115012;-78
2023/03/01 07:42:02;;;;;;;83.10;42.75;;;1.90;57.80;;;;;;4983443;28;115188;-79
2023/03/01 07:44:29;;;;;;;78.30;43.42;;;1.90;57.40;;;;;;4983279;28;114296;-79
2023/03/01 07:46:58;;;;;;;81.85;45.33;;;2.00;57.20;;;;;;4966552;28;114583;-77
2023/03/01 07:49:29;;;;;;;75.10;42.78;;;2.10;57.00;;;;;;4983148;28;115318;-78
2023/03/01 07:51:56;;;;;;;81.25;44.03;;;2.10;56.70;;;;;;4949924;28;115208;-79
2023/03/01 07:54:23;;;;;;;90.60;45.08;;;2.20;56.60;;;;;;5001767;28;114566;-79
2023/03/01 07:56:50;;;;;;;86.65;47.10;;;2.20;56.20;;;;;;4952760;28;114507;-79
2023/03/01 07:59:18;;;;;;;86.63;44.83;;;2.30;55.80;;;;;;5003035;28;115133;-79
2023/03/01 08:01:45;;;;;;;83.80;44.88;;;2.40;55.70;;;;;;4977679;28;114914;-79
2023/03/01 08:04:16;;;;;;;86.53;47.85;;;2.40;55.80;;;;;;4965319;28;114430;-79
2023/03/01 08:06:44;;;;;;;83.90;46.42;;;2.50;55.60;;;;;;4983489;28;114833;-79
2023/03/01 08:09:11;;;;;;;85.18;47.90;;;2.60;55.40;;;;;;4982729;28;115027;-79
2023/03/01 08:11:38;;;;;;;88.03;48.33;;;2.60;55.30;;;;;;4967178;28;118945;-79
2023/03/01 08:14:06;;;;;;;92.03;48.90;;;2.60;55.00;;;;;;5000830;28;120102;-79
2023/03/01 08:16:35;;;;;;;87.60;48.40;;;2.70;54.70;;;;;;4983839;28;116039;-79
2023/03/01 08:19:10;;;;;;;91.15;47.90;;;2.70;54.90;;;;;;4965797;28;115194;-78
2023/03/01 08:21:38;;;;;;;84.70;48.50;;;2.90;54.40;;;;;;4999682;28;116136;-78
2023/03/01 08:24:06;;;;;;;91.90;50.83;;;2.90;54.70;;;;;;4985850;28;117485;-79
2023/03/01 08:26:34;;;;;;;90.90;50.00;;;3.00;54.70;;;;;;4986479;28;114479;-79
2023/03/01 08:29:04;;;;;;;95.47;50.83;;;3.10;54.60;;;;;;5002321;28;115088;-79
2023/03/01 08:31:37;;;;;;;97.90;53.80;;;3.20;54.50;;;;;;4983729;28;115341;-78
2023/03/01 08:34:07;;;;;;;93.07;49.70;;;3.20;54.10;;;;;;4984849;28;114853;-79
2023/03/01 08:36:38;;;;;;;85.22;49.20;;;3.30;54.30;;;;;;4969391;28;114650;-78
2023/03/01 08:39:06;;;;;;;90.45;50.95;;;3.40;54.00;;;;;;5002306;28;114906;-79
2023/03/01 08:41:33;;;;;;;92.65;50.25;;;3.40;54.10;;;;;;4984974;28;115585;-81
2023/03/01 08:44:00;;;;;;;88.32;52.42;;;3.50;53.70;;;;;;5003321;28;114790;-79
2023/03/01 08:46:36;;;;;;;90.15;50.67;;;3.60;53.60;;;;;;5003151;28;114609;-79
2023/03/01 08:49:05;;;;;;;90.10;50.75;;;3.60;53.00;;;;;;4984335;28;117197;-79
2023/03/01 08:51:36;;;;;;;96.88;53.08;;;3.70;53.10;;;;;;5002880;28;116746;-79
2023/03/01 08:54:17;;;;;;;92.45;49.58;;;3.70;52.80;;;;;;4969818;28;114663;-79
2023/03/01 08:56:45;;;;;;;85.75;49.10;;;3.70;52.90;;;;;;5002565;28;114751;-78
2023/03/01 08:59:12;;;;;;;83.93;47.78;;;3.80;53.00;;;;;;4981004;28;115000;-80
2023/03/01 09:01:43;;;;;;;85.95;47.75;;;3.90;52.90;;;;;;5002384;28;115057;-78
2023/03/01 09:04:11;;;;;;;79.10;45.50;;;4.00;52.70;;;;;;4985700;28;114558;-79
2023/03/01 09:07:01;;;;;;;81.03;45.70;;;4.10;52.30;;;;;;4967576;28;114752;-79
2023/03/01 09:09:29;;;;;;;82.57;47.38;;;4.20;51.70;;;;;;4949962;28;115267;-80
2023/03/01 09:11:56;;;;;;;92.90;54.97;;;4.20;52.30;;;;;;4958479;28;116172;-78
2023/03/01 09:14:29;;;;;;;95.30;54.90;;;4.20;52.40;;;;;;5002299;28;115192;-79
2023/03/01 09:16:56;;;;;;;95.30;55.38;;;4.20;52.30;;;;;;4983466;28;114808;-80
2023/03/01 09:19:23;;;;;;;93.00;55.92;;;4.20;52.10;;;;;;4996530;28;115227;-80
2023/03/01 09:21:53;;;;;;;94.20;56.25;;;4.20;51.70;;;;;;5002296;28;114716;-79
2023/03/01 09:24:22;;;;;;;107.82;60.83;;;4.20;51.70;;;;;;4975541;28;114476;-80
2023/03/01 09:26:54;;;;;;;95.22;54.13;;;4.20;52.00;;;;;;4949195;28;114706;-81
2023/03/01 09:29:22;;;;;;;97.40;55.63;;;4.30;51.70;;;;;;4933386;28;117720;-81
2023/03/01 09:31:54;;;;;;;70.95;40.15;;;4.30;51.90;;;;;;4948430;28;117886;-80
2023/03/01 09:34:23;;;;;;;68.57;38.65;;;4.20;51.20;;;;;;4985203;28;114677;-79
2023/03/01 09:36:51;;;;;;;70.03;39.00;;;4.00;51.10;;;;;;4948408;28;114421;-80
2023/03/01 09:39:18;;;;;;;66.60;39.92;;;3.90;51.30;;;;;;4981515;28;115602;-79
2023/03/01 09:42:04;;;;;;;74.47;42.40;;;3.70;51.00;;;;;;4932859;28;114937;-79
2023/03/01 09:44:46;;;;;;;70.22;39.20;;;3.60;50.90;;;;;;4975721;28;114508;-79
2023/03/01 09:47:21;;;;;;;73.03;43.00;;;3.50;51.40;;;;;;4984629;28;114299;-79
2023/03/01 09:50:18;;;;;;;73.82;40.38;;;3.40;51.50;;;;;;4967389;28;115161;-80
2023/03/01 09:53:04;;;;;;;74.15;39.58;;;3.30;51.60;;;;;;4972269;28;114944;-77
2023/03/01 09:55:45;;;;;;;73.88;42.70;;;3.20;52.10;;;;;;4968282;28;114478;-78
2023/03/01 09:58:53;;;;;;;75.00;41.97;;;3.10;52.30;;;;;;4969127;28;114578;-80
2023/03/01 10:01:48;;;;;;;75.15;42.45;;;3.20;52.60;;;;;;5000733;28;118148;-80
2023/03/01 10:04:54;;;;;;;73.35;42.67;;;3.30;52.80;;;;;;4985234;28;115412;-79
2023/03/01 10:08:09;;;;;;;75.85;42.53;;;3.40;52.50;;;;;;4933751;28;114416;-78
2023/03/01 10:10:42;;;;;;;78.50;45.90;;;3.40;52.60;;;;;;4969022;28;115416;-79
2023/03/01 10:13:48;;;;;;;73.65;41.20;;;3.40;52.40;;;;;;4980894;28;115186;-79
2023/03/01 10:17:00;;;;;;;68.20;39.97;;;3.40;52.30;;;;;;4937590;28;117360;-79
2023/03/01 10:19:42;;;;;;;71.68;42.65;;;3.30;52.30;;;;;;4947891;28;115454;-79
2023/03/01 10:22:21;;;;;;;75.68;43.95;;;3.40;52.80;;;;;;4984526;28;114528;-79
2023/03/01 10:24:52;;;;;;;83.95;45.60;;;3.40;52.80;;;;;;4967272;28;115520;-79
2023/03/01 10:27:37;;;;;;;83.25;44.90;;;3.50;53.00;;;;;;4968690;28;114786;-81
2023/03/01 10:30:17;;;;;;;82.00;43.53;;;3.60;52.70;;;;;;4972922;28;114655;-80
2023/03/01 10:32:44;;;;;;;75.22;43.08;;;3.60;52.40;;;;;;5004815;28;114495;-78
2023/03/01 10:35:29;;;;;;;83.85;46.20;;;3.50;52.50;;;;;;4995320;28;115170;-79
2023/03/01 10:38:07;;;;;;;74.63;44.90;;;3.60;52.40;;;;;;4954635;28;114628;-79
2023/03/01 10:41:19;;;;;;;68.90;40.53;;;3.60;52.20;;;;;;4990928;28;115860;-79
2023/03/01 10:43:53;;;;;;;58.55;35.17;;;3.60;52.10;;;;;;4958308;28;114932;-80
2023/03/01 10:50:21;;;;;;;55.20;33.47;;;3.60;51.90;;;;;;4949776;28;115794;-79
2023/03/01 10:53:01;;;;;;;53.45;31.25;;;3.60;51.80;;;;;;4968879;28;114371;-80
2023/03/01 10:55:36;;;;;;;45.67;27.27;;;3.70;51.20;;;;;;4958835;28;114469;-79
2023/03/01 10:58:20;;;;;;;49.72;27.48;;;3.60;50.70;;;;;;4923006;28;116770;-78
2023/03/01 11:01:05;;;;;;;51.45;28.30;;;3.50;50.90;;;;;;4989206;28;114658;-78
2023/03/01 11:03:45;;;;;;;49.42;29.80;;;3.60;51.00;;;;;;4972353;28;115630;-82
2023/03/01 11:06:12;;;;;;;48.92;29.63;;;3.70;50.90;;;;;;4987214;28;117498;-79
2023/03/01 11:08:45;;;;;;;49.88;28.10;;;3.70;50.80;;;;;;5004105;28;115000;-79
2023/03/01 11:11:31;;;;;;;46.70;28.58;;;3.80;50.60;;;;;;4955050;28;114638;-80
2023/03/01 11:14:17;;;;;;;43.97;28.70;;;3.80;50.60;;;;;;4994748;28;114246;-78
2023/03/01 11:17:22;;;;;;;45.45;27.23;;;3.90;50.40;;;;;;4974645;28;114729;-80
2023/03/01 11:20:14;;;;;;;43.13;25.58;;;3.90;50.50;;;;;;4986842;28;116258;-80
2023/03/01 11:22:56;;;;;;;44.17;27.80;;;3.90;50.00;;;;;;5004451;28;114748;-79
2023/03/01 11:25:54;;;;;;;43.13;25.13;;;3.90;49.80;;;;;;4987350;28;114504;-79
2023/03/01 11:28:22;;;;;;;47.55;25.17;;;3.80;49.90;;;;;;4988316;28;114564;-79
2023/03/01 11:31:05;;;;;;;39.55;23.45;;;3.80;49.90;;;;;;4937322;28;115863;-79
2023/03/01 11:33:46;;;;;;;40.65;24.52;;;3.80;49.90;;;;;;4954114;28;117969;-79
2023/03/01 11:36:17;;;;;;;41.38;24.80;;;3.90;49.90;;;;;;4971669;28;114431;-79
2023/03/01 11:38:44;;;;;;;37.70;24.42;;;3.90;50.10;;;;;;4986672;28;114487;-79
2023/03/01 11:41:25;;;;;;;41.67;25.23;;;3.90;50.40;;;;;;4932251;28;115234;-80
2023/03/01 11:44:01;;;;;;;41.65;24.95;;;4.10;50.20;;;;;;4969542;28;114752;-79
2023/03/01 11:46:34;;;;;;;41.33;24.45;;;4.20;49.80;;;;;;4998454;28;114382;-79
2023/03/01 11:49:14;;;;;;;39.13;24.55;;;4.10;49.60;;;;;;4967716;28;114434;-79
2023/03/01 11:52:24;;;;;;;43.28;24.88;;;4.20;49.60;;;;;;4984216;28;115849;-80
2023/03/01 11:55:31;;;;;;;39.70;24.52;;;4.20;49.90;;;;;;4952666;28;114646;-80
2023/03/01 11:58:19;;;;;;;42.97;27.20;;;4.30;49.70;;;;;;4966573;28;115626;-80
2023/03/01 12:01:23;;;;;;;46.70;28.90;;;4.30;49.20;;;;;;4967189;28;114336;-80
2023/03/01 12:04:08;;;;;;;47.83;28.70;;;4.20;49.80;;;;;;4966200;28;115094;-79
2023/03/01 12:06:57;;;;;;;45.60;27.25;;;4.30;49.30;;;;;;4983303;28;117215;-80
2023/03/01 12:09:45;;;;;;;42.85;25.48;;;4.30;49.50;;;;;;4965984;28;114327;-81
2023/03/01 12:12:29;;;;;;;43.97;25.10;;;4.30;49.10;;;;;;4979702;28;114435;-79
2023/03/01 12:15:24;;;;;;;41.65;25.08;;;4.40;49.10;;;;;;4985040;28;115475;-79
2023/03/01 12:17:59;;;;;;;39.05;24.63;;;4.50;48.70;;;;;;5003334;28;115020;-79
2023/03/01 12:20:43;;;;;;;45.17;25.83;;;4.50;48.70;;;;;;4954166;28;114496;-80
2023/03/01 12:23:55;;;;;;;45.95;28.50;;;4.50;48.50;;;;;;4987809;28;114588;-79
2023/03/01 12:26:34;;;;;;;44.13;27.05;;;4.50;49.00;;;;;;4976372;28;115100;-80
2023/03/01 12:29:31;;;;;;;48.13;27.17;;;4.60;49.30;;;;;;4939956;28;114746;-79
2023/03/01 12:32:22;;;;;;;40.60;25.80;;;4.60;48.70;;;;;;4969684;28;114406;-80
2023/03/01 12:35:23;;;;;;;40.33;24.20;;;4.70;48.30;;;;;;4986094;28;114443;-80
2023/03/01 12:37:59;;;;;;;40.80;24.02;;;4.70;47.80;;;;;;4984299;28;117492;-79
2023/03/01 12:40:43;;;;;;;43.65;24.48;;;4.60;47.80;;;;;;4937893;28;114703;-79
2023/03/01 12:44:02;;;;;;;41.95;22.70;;;4.60;48.40;;;;;;4986551;28;114547;-79
2023/03/01 12:46:52;;;;;;;39.20;24.58;;;4.80;48.20;;;;;;5000298;28;114535;-78
2023/03/01 12:50:00;;;;;;;41.90;23.73;;;4.80;48.10;;;;;;4985213;28;115028;-79
2023/03/01 12:52:35;;;;;;;36.15;21.38;;;4.80;48.00;;;;;;5002101;28;114722;-78
2023/03/01 12:55:06;;;;;;;37.40;23.20;;;4.80;47.90;;;;;;4985865;28;114487;-79
2023/03/01 12:57:43;;;;;;;34.08;22.67;;;4.80;47.40;;;;;;4953862;28;117463;-78